Azalia, Michigan
Current Conditions -  °F | °C
As of 8:35 AM on Wednesday 22 Oct 2014 (Local Time) from KTTF Reporting Station
Overcast Overcast  
Wind Chill: 46°   Ceiling: 1800
Heat Index: 46°   Visibility: 10mi
Dew Point: 39°   Wind: 3mph
Humidity: 76%   Direction: 20°NNE
Pressure: 30.29"   Gusts: NA
Location:  42.02°N, 83.67°W
Report Text: KTTF 221235Z AUTO 02003KT 10SM OVC018 08/04 A3029 RMK AO2
Loading
Personal Weather Stations






























Interactive Weather Map New forecast layout! Learn more

10-Day Weather Forecast

Advertisements
Track Severe Weather on mobile